createdAt,value
2018-07-28T00:00:18.608Z,99.90
2018-07-28T00:05:13.835Z,99.90
2018-07-28T00:07:41.422Z,99.90
2018-07-28T00:12:38.135Z,99.90
2018-07-28T00:15:08.114Z,99.90
2018-07-28T00:17:35.732Z,99.90
2018-07-28T00:20:04.242Z,99.90
2018-07-28T00:22:31.744Z,99.90
2018-07-28T00:24:59.275Z,99.90
2018-07-28T00:29:54.314Z,99.90
2018-07-28T00:32:21.811Z,99.90
2018-07-28T00:34:49.334Z,99.90
2018-07-28T00:37:16.822Z,99.90
2018-07-28T00:39:44.374Z,99.90
2018-07-28T00:42:12.009Z,99.90
2018-07-28T00:44:39.525Z,99.90
2018-07-28T00:47:07.040Z,99.90
2018-07-28T00:49:34.554Z,99.90
2018-07-28T00:52:03.894Z,99.90
2018-07-28T00:54:31.414Z,99.90
2018-07-28T00:59:26.404Z,99.90
2018-07-28T01:01:53.918Z,99.90
2018-07-28T01:04:21.455Z,99.90
2018-07-28T01:06:48.936Z,99.90
2018-07-28T01:09:16.631Z,99.90
2018-07-28T01:11:44.203Z,99.90
2018-07-28T01:14:11.737Z,99.90
2018-07-28T01:16:39.392Z,99.90
2018-07-28T01:19:07.038Z,99.90
2018-07-28T01:21:34.610Z,99.90
2018-07-28T01:24:02.135Z,99.90
2018-07-28T01:26:29.654Z,99.90
2018-07-28T01:29:02.888Z,99.90
2018-07-28T01:31:30.403Z,99.90
2018-07-28T01:33:57.930Z,99.90
2018-07-28T01:36:25.451Z,99.90
2018-07-28T01:38:52.959Z,99.90
2018-07-28T01:41:20.605Z,99.90
2018-07-28T01:43:48.166Z,99.90
2018-07-28T01:46:15.687Z,99.90
2018-07-28T01:48:43.523Z,99.90
2018-07-28T01:51:11.128Z,99.90
2018-07-28T01:53:38.659Z,99.90
2018-07-28T01:56:06.464Z,99.90
2018-07-28T01:58:33.995Z,99.90
2018-07-28T02:01:01.511Z,99.90
2018-07-28T02:03:29.087Z,99.90
2018-07-28T02:08:24.121Z,99.90
2018-07-28T02:10:51.655Z,99.90
2018-07-28T02:13:19.164Z,99.90
2018-07-28T02:15:46.702Z,99.90
2018-07-28T02:18:14.590Z,99.90
2018-07-28T02:20:42.163Z,99.90
2018-07-28T02:23:09.683Z,99.90
2018-07-28T02:25:37.235Z,99.90
2018-07-28T02:30:32.298Z,99.90
2018-07-28T02:32:59.815Z,99.90
2018-07-28T02:35:27.353Z,99.90
2018-07-28T02:37:54.860Z,99.90
2018-07-28T02:40:22.395Z,99.90
2018-07-28T02:42:52.831Z,99.90
2018-07-28T02:45:20.359Z,99.90
2018-07-28T02:50:15.388Z,99.90
2018-07-28T02:52:42.871Z,99.90
2018-07-28T02:55:10.439Z,99.90
2018-07-28T02:57:37.919Z,99.90
2018-07-28T03:00:06.764Z,99.90
2018-07-28T03:02:34.544Z,99.90
2018-07-28T03:05:02.043Z,99.90
2018-07-28T03:07:29.658Z,99.90
2018-07-28T03:09:57.185Z,99.90
2018-07-28T03:12:24.777Z,99.90
2018-07-28T03:14:52.282Z,99.90
2018-07-28T03:17:20.278Z,99.90
2018-07-28T03:19:47.763Z,99.90
2018-07-28T03:22:15.282Z,99.90
2018-07-28T03:27:10.413Z,99.90
2018-07-28T03:29:38.008Z,99.90
2018-07-28T03:32:05.563Z,99.90
2018-07-28T03:34:33.100Z,99.90
2018-07-28T03:39:28.081Z,99.90
2018-07-28T03:41:55.902Z,99.90
2018-07-28T03:44:23.427Z,99.90
2018-07-28T03:46:50.935Z,99.90
2018-07-28T03:49:18.555Z,99.90
2018-07-28T03:54:14.076Z,99.90
2018-07-28T03:56:41.572Z,99.90
2018-07-28T03:59:09.120Z,99.90
2018-07-28T04:01:36.648Z,99.90
2018-07-28T04:04:04.903Z,99.90
2018-07-28T04:06:32.336Z,99.90
2018-07-28T04:08:59.834Z,99.90
2018-07-28T04:11:27.362Z,99.90
2018-07-28T04:13:54.859Z,99.90
2018-07-28T04:16:22.408Z,99.90
2018-07-28T04:18:49.900Z,99.90
2018-07-28T04:21:17.422Z,99.90
2018-07-28T04:23:44.939Z,99.90
2018-07-28T04:28:40.027Z,99.90
2018-07-28T04:31:07.481Z,99.90
2018-07-28T04:33:34.996Z,99.90
2018-07-28T04:38:34.753Z,99.90
2018-07-28T04:41:02.316Z,99.90
2018-07-28T04:43:29.767Z,99.90
2018-07-28T04:45:57.347Z,99.90
2018-07-28T04:48:24.864Z,99.90
2018-07-28T04:50:52.333Z,99.90
2018-07-28T04:53:19.947Z,99.90
2018-07-28T04:55:47.467Z,99.90
2018-07-28T04:58:14.980Z,99.90
2018-07-28T05:03:10.017Z,99.90
2018-07-28T05:05:44.242Z,99.90
2018-07-28T05:08:11.727Z,99.90
2018-07-28T05:10:39.212Z,99.90
2018-07-28T05:13:06.839Z,99.90
2018-07-28T05:15:34.374Z,99.90
2018-07-28T05:18:01.931Z,99.90
2018-07-28T05:20:29.447Z,99.90
2018-07-28T05:22:56.971Z,99.90
2018-07-28T05:25:24.633Z,99.90
2018-07-28T05:27:52.120Z,99.90
2018-07-28T05:30:19.640Z,99.90
2018-07-28T05:32:47.102Z,99.90
2018-07-28T05:35:14.583Z,99.90
2018-07-28T05:37:42.102Z,99.90
2018-07-28T05:40:09.657Z,99.90
2018-07-28T05:45:05.329Z,99.90
2018-07-28T05:47:32.967Z,99.90
2018-07-28T05:50:00.570Z,99.90
2018-07-28T05:52:28.049Z,99.90
2018-07-28T05:54:55.571Z,99.90
2018-07-28T05:57:23.059Z,99.90
2018-07-28T05:59:50.846Z,99.90
2018-07-28T06:02:18.327Z,99.90
2018-07-28T06:04:45.867Z,99.90
2018-07-28T06:07:13.372Z,99.90
2018-07-28T06:09:40.996Z,99.90
2018-07-28T06:12:08.523Z,99.90
2018-07-28T06:14:36.022Z,99.90
2018-07-28T06:17:03.567Z,99.90
2018-07-28T06:19:31.031Z,99.90
2018-07-28T06:21:58.577Z,99.90
2018-07-28T06:24:26.093Z,99.90
2018-07-28T06:26:53.702Z,99.90
2018-07-28T06:29:21.163Z,99.90
2018-07-28T06:31:48.721Z,99.90
2018-07-28T06:34:16.126Z,99.90
2018-07-28T06:36:43.731Z,99.90
2018-07-28T06:39:13.063Z,99.90
2018-07-28T06:41:40.613Z,99.90
2018-07-28T06:44:08.103Z,99.90
2018-07-28T06:46:35.615Z,99.90
2018-07-28T06:49:03.133Z,99.90
2018-07-28T06:51:30.663Z,99.90
2018-07-28T06:53:58.110Z,99.90
2018-07-28T06:56:25.587Z,99.90
2018-07-28T06:58:53.049Z,99.90
2018-07-28T07:01:20.656Z,99.90
2018-07-28T07:03:48.497Z,99.90
2018-07-28T07:08:43.529Z,99.90
2018-07-28T07:11:11.204Z,99.90
2018-07-28T07:13:38.684Z,99.90
2018-07-28T07:16:06.239Z,99.90
2018-07-28T07:18:33.699Z,99.90
2018-07-28T07:21:01.342Z,99.90
2018-07-28T07:23:28.846Z,99.90
2018-07-28T07:25:56.555Z,99.90
2018-07-28T07:28:24.119Z,99.90
2018-07-28T07:30:51.611Z,99.90
2018-07-28T07:33:19.100Z,99.90
2018-07-28T07:35:46.756Z,99.90
2018-07-28T07:40:41.872Z,99.90
2018-07-28T07:43:09.349Z,99.90
2018-07-28T07:45:36.888Z,99.90
2018-07-28T07:50:31.961Z,99.90
2018-07-28T07:52:59.415Z,99.90
2018-07-28T07:55:27.447Z,99.90
2018-07-28T07:57:54.913Z,99.90
2018-07-28T08:00:22.478Z,99.90
2018-07-28T08:02:49.971Z,99.90
2018-07-28T08:05:17.443Z,99.90
2018-07-28T08:07:44.902Z,99.90
2018-07-28T08:10:12.357Z,99.90
2018-07-28T08:12:39.851Z,99.90
2018-07-28T08:17:34.748Z,99.90
2018-07-28T08:20:02.255Z,99.90
2018-07-28T08:22:29.714Z,99.90
2018-07-28T08:24:57.162Z,99.90
2018-07-28T08:27:24.621Z,99.90
2018-07-28T08:29:52.070Z,99.90
2018-07-28T08:32:19.529Z,99.90
2018-07-28T08:34:46.976Z,99.90
2018-07-28T08:37:14.508Z,99.90
2018-07-28T08:39:41.942Z,99.90
2018-07-28T08:42:09.418Z,99.90
2018-07-28T08:44:36.878Z,99.90
2018-07-28T08:47:04.343Z,99.90
2018-07-28T08:49:31.930Z,99.90
2018-07-28T08:51:59.414Z,99.90
2018-07-28T08:54:26.902Z,99.90
2018-07-28T08:56:54.355Z,99.90
2018-07-28T09:01:49.341Z,99.90
2018-07-28T09:04:16.781Z,99.90
2018-07-28T09:06:44.278Z,99.90
2018-07-28T09:11:39.454Z,99.90
2018-07-28T09:14:07.858Z,99.90
2018-07-28T09:16:35.626Z,99.90
2018-07-28T09:19:03.085Z,99.90
2018-07-28T09:21:30.681Z,99.90
2018-07-28T09:23:58.293Z,99.90
2018-07-28T09:29:00.261Z,99.90
2018-07-28T09:31:28.093Z,99.90
2018-07-28T09:33:55.625Z,99.90
2018-07-28T09:36:23.286Z,99.90
2018-07-28T09:38:51.007Z,99.90
2018-07-28T09:41:18.489Z,99.90
2018-07-28T09:43:46.060Z,99.90
2018-07-28T09:46:13.603Z,99.90
2018-07-28T09:48:41.074Z,99.90
2018-07-28T09:51:09.139Z,99.90
2018-07-28T09:53:36.578Z,99.90
2018-07-28T09:58:31.774Z,99.90
2018-07-28T10:01:30.498Z,99.90
2018-07-28T10:06:25.655Z,99.90
2018-07-28T10:08:53.128Z,99.90
2018-07-28T10:11:20.565Z,99.90
2018-07-28T10:13:48.020Z,99.90
2018-07-28T10:16:16.321Z,99.90
2018-07-28T10:18:43.808Z,99.90
2018-07-28T10:21:11.246Z,99.80
2018-07-28T10:23:38.686Z,99.50
2018-07-28T10:26:06.274Z,99.70
2018-07-28T10:28:33.729Z,99.50
2018-07-28T10:33:28.714Z,98.50
2018-07-28T10:35:56.185Z,98.50
2018-07-28T10:38:23.643Z,98.60
2018-07-28T10:40:51.139Z,98.10
2018-07-28T10:43:18.593Z,98.10
2018-07-28T10:45:46.231Z,97.80
2018-07-28T10:48:13.708Z,97.30
2018-07-28T10:50:41.178Z,97.10
2018-07-28T10:53:08.646Z,96.70
2018-07-28T10:55:36.126Z,96.90
2018-07-28T10:58:03.644Z,96.30
2018-07-28T11:00:31.160Z,95.40
2018-07-28T11:02:58.609Z,95.50
2018-07-28T11:05:26.042Z,95.20
2018-07-28T11:07:53.494Z,95.50
2018-07-28T11:10:20.942Z,95.60
2018-07-28T11:12:48.417Z,94.30
2018-07-28T11:15:15.979Z,94.40
2018-07-28T11:17:43.477Z,94.00
2018-07-28T11:20:11.323Z,93.70
2018-07-28T11:22:38.833Z,93.60
2018-07-28T11:25:07.274Z,93.70
2018-07-28T11:30:02.815Z,92.70
2018-07-28T11:32:41.771Z,92.40
2018-07-28T11:35:20.864Z,92.50
2018-07-28T11:38:34.124Z,92.10
2018-07-28T11:41:13.185Z,91.40
2018-07-28T11:43:52.143Z,91.40
2018-07-28T11:46:19.606Z,91.40
2018-07-28T11:51:14.569Z,91.80
2018-07-28T11:53:42.002Z,91.20
2018-07-28T11:56:09.496Z,91.00
2018-07-28T11:58:36.983Z,91.20
2018-07-28T12:01:04.729Z,90.80
2018-07-28T12:03:32.530Z,90.70
2018-07-28T12:05:59.963Z,90.70
2018-07-28T12:13:22.449Z,90.20
2018-07-28T12:15:49.990Z,90.30
2018-07-28T12:18:17.463Z,90.00
2018-07-28T12:20:44.915Z,90.30
2018-07-28T12:23:12.375Z,89.60
2018-07-28T12:25:39.982Z,88.90
2018-07-28T12:28:07.466Z,89.50
2018-07-28T12:33:06.370Z,88.60
2018-07-28T12:35:33.857Z,88.60
2018-07-28T12:38:01.315Z,89.60
2018-07-28T12:40:28.794Z,88.90
2018-07-28T12:42:56.265Z,87.00
2018-07-28T12:45:23.756Z,87.50
2018-07-28T12:50:18.610Z,87.00
2018-07-28T12:52:46.236Z,87.50
2018-07-28T13:00:08.997Z,87.50
2018-07-28T13:02:36.530Z,86.20
2018-07-28T13:05:05.231Z,86.40
2018-07-28T13:07:32.668Z,87.20
2018-07-28T13:10:00.102Z,87.00
2018-07-28T13:12:27.770Z,87.10
2018-07-28T13:14:55.216Z,86.90
2018-07-28T13:17:22.649Z,86.40
2018-07-28T13:19:50.345Z,83.90
2018-07-28T13:22:17.815Z,84.00
2018-07-28T13:24:45.328Z,83.80
2018-07-28T13:27:12.766Z,83.70
2018-07-28T13:32:07.759Z,83.40
2018-07-28T13:34:35.274Z,82.30
2018-07-28T13:37:02.731Z,81.90
2018-07-28T13:39:30.206Z,80.80
2018-07-28T13:41:57.998Z,80.70
2018-07-28T13:44:25.465Z,82.00
2018-07-28T13:46:52.923Z,81.10
2018-07-28T13:51:47.803Z,83.10
2018-07-28T13:54:15.297Z,83.00
2018-07-28T13:59:11.641Z,81.50
2018-07-28T14:01:39.389Z,80.00
2018-07-28T14:04:06.994Z,81.70
2018-07-28T14:06:34.467Z,80.70
2018-07-28T14:09:02.422Z,79.00
2018-07-28T14:13:57.365Z,80.70
2018-07-28T14:16:24.980Z,79.70
2018-07-28T14:18:52.555Z,80.30
2018-07-28T14:21:20.184Z,79.60
2018-07-28T14:26:16.478Z,81.80
2018-07-28T14:28:44.000Z,79.90
2018-07-28T14:31:11.559Z,80.70
2018-07-28T14:33:38.979Z,80.40
2018-07-28T14:36:06.458Z,81.00
2018-07-28T14:38:33.895Z,81.80
2018-07-28T14:41:02.743Z,81.30
2018-07-28T14:43:30.301Z,81.30
2018-07-28T14:45:57.835Z,81.10
2018-07-28T14:48:25.349Z,81.90
2018-07-28T14:50:52.829Z,82.00
2018-07-28T14:53:20.269Z,81.60
2018-07-28T14:55:47.731Z,82.90
2018-07-28T14:58:15.315Z,83.80
2018-07-28T15:00:42.874Z,83.30
2018-07-28T15:03:10.333Z,83.00
2018-07-28T15:05:37.855Z,84.00
2018-07-28T15:08:05.312Z,86.90
2018-07-28T15:10:32.801Z,89.50
2018-07-28T15:13:00.278Z,92.20
2018-07-28T15:15:27.731Z,93.20
2018-07-28T15:17:55.272Z,95.10
2018-07-28T15:20:22.736Z,96.80
2018-07-28T15:22:50.261Z,97.90
2018-07-28T15:25:17.750Z,98.80
2018-07-28T15:27:45.185Z,99.90
2018-07-28T15:30:12.678Z,99.90
2018-07-28T15:32:40.158Z,99.90
2018-07-28T15:35:07.666Z,99.90
2018-07-28T15:37:35.112Z,99.90
2018-07-28T15:42:30.079Z,99.90
2018-07-28T15:44:57.595Z,99.90
2018-07-28T15:47:25.153Z,99.90
2018-07-28T15:49:52.599Z,99.90
2018-07-28T15:52:20.050Z,99.90
2018-07-28T15:54:47.581Z,99.90
2018-07-28T15:57:15.079Z,99.90
2018-07-28T15:59:42.536Z,99.90
2018-07-28T16:02:10.116Z,99.90
2018-07-28T16:04:37.544Z,99.90
2018-07-28T16:09:32.614Z,99.90
2018-07-28T16:12:00.071Z,99.90
2018-07-28T16:14:27.512Z,99.90
2018-07-28T16:16:55.136Z,99.90
2018-07-28T16:19:22.617Z,99.90
2018-07-28T16:21:50.099Z,99.90
2018-07-28T16:24:17.559Z,99.90
2018-07-28T16:26:45.366Z,99.90
2018-07-28T16:31:40.253Z,99.90
2018-07-28T16:34:08.040Z,99.90
2018-07-28T16:36:35.501Z,99.90
2018-07-28T16:41:31.051Z,99.90
2018-07-28T16:43:58.477Z,99.90
2018-07-28T16:48:53.395Z,99.90
2018-07-28T16:51:20.881Z,99.90
2018-07-28T16:53:48.361Z,99.90
2018-07-28T16:56:15.848Z,99.90
2018-07-28T17:01:10.832Z,99.90
2018-07-28T17:03:38.452Z,99.90
2018-07-28T17:06:05.917Z,99.90
2018-07-28T17:08:33.350Z,99.90
2018-07-28T17:11:00.920Z,99.90
2018-07-28T17:13:28.341Z,99.90
2018-07-28T17:15:55.847Z,99.90
2018-07-28T17:18:23.309Z,99.90
2018-07-28T17:20:51.063Z,99.90
2018-07-28T17:23:18.580Z,99.90
2018-07-28T17:25:46.050Z,99.90
2018-07-28T17:30:41.101Z,99.90
2018-07-28T17:33:08.595Z,99.90
2018-07-28T17:35:37.144Z,99.90
2018-07-28T17:38:04.686Z,99.90
2018-07-28T17:40:32.139Z,99.90
2018-07-28T17:42:59.607Z,99.90
2018-07-28T17:45:27.097Z,99.90
2018-07-28T17:47:54.584Z,99.90
2018-07-28T17:52:49.541Z,99.90
2018-07-28T17:55:16.985Z,99.90
2018-07-28T17:57:44.528Z,99.90
2018-07-28T18:00:12.383Z,99.90
2018-07-28T18:02:39.901Z,99.90
2018-07-28T18:05:07.846Z,99.90
2018-07-28T18:07:35.465Z,99.90
2018-07-28T18:10:03.090Z,99.90
2018-07-28T18:12:30.690Z,99.90
2018-07-28T18:17:25.813Z,99.90
2018-07-28T18:19:53.281Z,99.90
2018-07-28T18:22:20.910Z,99.90
2018-07-28T18:27:15.961Z,99.90
2018-07-28T18:34:38.286Z,99.90
2018-07-28T18:37:05.815Z,99.90
2018-07-28T18:39:33.298Z,99.90
2018-07-28T18:44:28.393Z,99.90
2018-07-28T18:46:55.850Z,99.90
2018-07-28T18:49:23.327Z,99.90
2018-07-28T18:51:50.825Z,99.90
2018-07-28T18:54:18.293Z,99.90
2018-07-28T18:56:45.798Z,99.90
2018-07-28T18:59:13.359Z,99.90
2018-07-28T19:01:40.811Z,99.90
2018-07-28T19:04:08.276Z,99.90
2018-07-28T19:06:35.817Z,99.90
2018-07-28T19:09:10.604Z,99.90
2018-07-28T19:11:38.123Z,99.90
2018-07-28T19:14:11.275Z,99.90
2018-07-28T19:16:38.750Z,99.90
2018-07-28T19:19:12.162Z,99.90
2018-07-28T19:21:39.690Z,99.90
2018-07-28T19:24:07.151Z,99.90
2018-07-28T19:26:34.595Z,99.90
2018-07-28T19:29:07.829Z,99.90
2018-07-28T19:31:35.351Z,99.90
2018-07-28T19:34:04.331Z,99.90
2018-07-28T19:36:37.503Z,99.90
2018-07-28T19:39:07.126Z,99.90
2018-07-28T19:41:40.417Z,99.90
2018-07-28T19:44:07.857Z,99.90
2018-07-28T19:46:35.304Z,99.90
2018-07-28T19:49:02.794Z,99.90
2018-07-28T19:51:30.221Z,99.90
2018-07-28T19:53:57.711Z,99.90
2018-07-28T19:56:25.166Z,99.90
2018-07-28T19:58:52.613Z,99.90
2018-07-28T20:01:20.036Z,99.90
2018-07-28T20:06:15.042Z,99.90
2018-07-28T20:11:09.959Z,99.90
2018-07-28T20:13:37.435Z,99.90
2018-07-28T20:16:04.890Z,99.90
2018-07-28T20:18:32.640Z,99.90
2018-07-28T20:25:55.118Z,99.90
2018-07-28T20:28:22.683Z,99.90
2018-07-28T20:30:50.193Z,99.90
2018-07-28T20:33:17.615Z,99.90
2018-07-28T20:35:45.087Z,99.90
2018-07-28T20:38:12.543Z,99.90
2018-07-28T20:40:40.045Z,99.90
2018-07-28T20:43:07.463Z,99.90
2018-07-28T20:45:35.005Z,99.90
2018-07-28T20:48:02.519Z,99.90
2018-07-28T20:52:57.439Z,99.90
2018-07-28T20:55:24.902Z,99.90
2018-07-28T20:57:52.330Z,99.90
2018-07-28T21:00:19.810Z,99.90
2018-07-28T21:02:47.247Z,99.90
2018-07-28T21:05:14.717Z,99.90
2018-07-28T21:10:09.692Z,99.90
2018-07-28T21:12:37.138Z,99.90
2018-07-28T21:15:05.722Z,99.90
2018-07-28T21:17:33.194Z,99.90
2018-07-28T21:20:00.707Z,99.90
2018-07-28T21:22:28.260Z,99.90
2018-07-28T21:24:55.776Z,99.90
2018-07-28T21:27:23.250Z,99.90
2018-07-28T21:32:18.704Z,99.90
2018-07-28T21:34:46.239Z,99.90
2018-07-28T21:39:41.675Z,99.90
2018-07-28T21:42:09.361Z,99.90
2018-07-28T21:44:36.830Z,99.90
2018-07-28T21:47:05.082Z,99.90
2018-07-28T21:49:35.088Z,99.90
2018-07-28T21:52:02.601Z,99.90
2018-07-28T21:54:30.108Z,99.90
2018-07-28T21:56:57.653Z,99.90
2018-07-28T21:59:25.210Z,99.90
2018-07-28T22:01:52.681Z,99.90
2018-07-28T22:04:26.888Z,99.90
2018-07-28T22:06:54.383Z,99.90
2018-07-28T22:09:21.883Z,99.90
2018-07-28T22:14:16.945Z,99.90
2018-07-28T22:16:44.503Z,99.90
2018-07-28T22:19:11.964Z,99.90
2018-07-28T22:21:39.482Z,99.90
2018-07-28T22:24:06.947Z,99.90
2018-07-28T22:29:01.973Z,99.90
2018-07-28T22:31:29.482Z,99.90
2018-07-28T22:33:59.839Z,99.90
2018-07-28T22:38:54.962Z,99.90
2018-07-28T22:41:22.447Z,99.90
2018-07-28T22:43:49.998Z,99.90
2018-07-28T22:46:17.499Z,99.90
2018-07-28T22:48:44.961Z,99.90
2018-07-28T22:51:12.457Z,99.90
2018-07-28T22:53:39.909Z,99.90
2018-07-28T22:56:07.446Z,99.90
2018-07-28T22:58:34.907Z,99.90
2018-07-28T23:01:02.490Z,99.90
2018-07-28T23:03:30.140Z,99.90
2018-07-28T23:05:57.709Z,99.90
2018-07-28T23:08:25.175Z,99.90
2018-07-28T23:10:52.671Z,99.90
2018-07-28T23:13:20.186Z,99.90
2018-07-28T23:15:53.463Z,99.90
2018-07-28T23:18:21.008Z,99.90
2018-07-28T23:23:16.099Z,99.90
2018-07-28T23:25:43.760Z,99.90
2018-07-28T23:28:11.262Z,99.90
2018-07-28T23:30:38.735Z,99.90
2018-07-28T23:33:06.254Z,99.90
2018-07-28T23:35:33.709Z,99.90
2018-07-28T23:38:01.223Z,99.90
2018-07-28T23:40:29.068Z,99.90
2018-07-28T23:42:56.615Z,99.90
2018-07-28T23:45:25.128Z,99.90
2018-07-28T23:47:52.664Z,99.90
2018-07-28T23:50:20.227Z,99.90
2018-07-28T23:52:47.735Z,99.90
2018-07-28T23:55:15.217Z,99.90
2018-07-28T23:57:42.747Z,99.90
